sensor_id;sensor_type;location;lat;lon;timestamp;temperature;humidity
480;DHT22;226;48.606;9.096;2022-10-16T00:00:12;15.10;96.00
480;DHT22;226;48.606;9.096;2022-10-16T00:02:40;15.20;98.00
480;DHT22;226;48.606;9.096;2022-10-16T00:05:09;15.60;98.50
480;DHT22;226;48.606;9.096;2022-10-16T00:07:39;15.10;97.70
480;DHT22;226;48.606;9.096;2022-10-16T00:10:08;15.70;98.30
480;DHT22;226;48.606;9.096;2022-10-16T00:12:36;15.20;97.70
480;DHT22;226;48.606;9.096;2022-10-16T00:15:05;15.90;98.20
480;DHT22;226;48.606;9.096;2022-10-16T00:17:33;15.10;97.30
480;DHT22;226;48.606;9.096;2022-10-16T00:20:01;14.80;99.90
480;DHT22;226;48.606;9.096;2022-10-16T00:22:29;14.80;99.20
480;DHT22;226;48.606;9.096;2022-10-16T00:24:59;15.60;99.90
480;DHT22;226;48.606;9.096;2022-10-16T00:27:26;15.10;99.90
480;DHT22;226;48.606;9.096;2022-10-16T00:29:55;14.50;99.90
480;DHT22;226;48.606;9.096;2022-10-16T00:32:26;14.50;99.60
480;DHT22;226;48.606;9.096;2022-10-16T00:34:54;14.70;99.70
480;DHT22;226;48.606;9.096;2022-10-16T00:37:22;15.00;99.90
480;DHT22;226;48.606;9.096;2022-10-16T00:39:50;14.60;99.90
480;DHT22;226;48.606;9.096;2022-10-16T00:42:19;14.70;99.40
480;DHT22;226;48.606;9.096;2022-10-16T00:44:49;15.10;99.60
480;DHT22;226;48.606;9.096;2022-10-16T00:47:22;15.50;99.40
480;DHT22;226;48.606;9.096;2022-10-16T00:49:55;14.50;99.90
480;DHT22;226;48.606;9.096;2022-10-16T00:52:23;15.00;98.60
480;DHT22;226;48.606;9.096;2022-10-16T00:54:52;14.60;98.20
480;DHT22;226;48.606;9.096;2022-10-16T00:57:23;14.70;98.40
480;DHT22;226;48.606;9.096;2022-10-16T00:59:51;14.60;99.90
480;DHT22;226;48.606;9.096;2022-10-16T01:02:19;15.00;99.00
480;DHT22;226;48.606;9.096;2022-10-16T01:04:49;14.90;99.80
480;DHT22;226;48.606;9.096;2022-10-16T01:07:33;15.20;99.90
480;DHT22;226;48.606;9.096;2022-10-16T01:10:07;14.40;99.90
480;DHT22;226;48.606;9.096;2022-10-16T01:12:41;14.90;99.90
480;DHT22;226;48.606;9.096;2022-10-16T01:15:17;14.90;99.90
480;DHT22;226;48.606;9.096;2022-10-16T01:17:51;15.40;99.70
480;DHT22;226;48.606;9.096;2022-10-16T01:20:26;14.90;99.10
480;DHT22;226;48.606;9.096;2022-10-16T01:23:03;14.60;99.20
480;DHT22;226;48.606;9.096;2022-10-16T01:25:49;14.80;99.20
480;DHT22;226;48.606;9.096;2022-10-16T01:28:27;15.00;98.90
480;DHT22;226;48.606;9.096;2022-10-16T01:30:58;14.50;98.30
480;DHT22;226;48.606;9.096;2022-10-16T01:33:32;15.30;98.40
480;DHT22;226;48.606;9.096;2022-10-16T01:36:07;15.50;98.10
480;DHT22;226;48.606;9.096;2022-10-16T01:38:39;13.20;97.20
480;DHT22;226;48.606;9.096;2022-10-16T01:41:10;15.50;97.90
480;DHT22;226;48.606;9.096;2022-10-16T01:43:43;14.40;98.30
480;DHT22;226;48.606;9.096;2022-10-16T01:46:15;14.70;98.50
480;DHT22;226;48.606;9.096;2022-10-16T01:48:45;14.70;99.60
480;DHT22;226;48.606;9.096;2022-10-16T01:51:15;14.00;99.90
480;DHT22;226;48.606;9.096;2022-10-16T01:53:47;14.00;99.90
480;DHT22;226;48.606;9.096;2022-10-16T01:56:17;14.60;99.90
480;DHT22;226;48.606;9.096;2022-10-16T01:58:52;14.40;99.90
480;DHT22;226;48.606;9.096;2022-10-16T02:01:23;14.10;99.90
480;DHT22;226;48.606;9.096;2022-10-16T02:03:54;15.20;99.90
480;DHT22;226;48.606;9.096;2022-10-16T02:06:24;14.80;99.90
480;DHT22;226;48.606;9.096;2022-10-16T02:08:53;14.30;99.90
480;DHT22;226;48.606;9.096;2022-10-16T02:11:21;14.50;99.90
480;DHT22;226;48.606;9.096;2022-10-16T02:13:54;14.30;99.90
480;DHT22;226;48.606;9.096;2022-10-16T02:16:31;14.80;99.90
480;DHT22;226;48.606;9.096;2022-10-16T02:19:00;15.10;99.90
480;DHT22;226;48.606;9.096;2022-10-16T02:21:31;14.90;99.90
480;DHT22;226;48.606;9.096;2022-10-16T02:24:05;14.40;99.90
480;DHT22;226;48.606;9.096;2022-10-16T02:26:41;14.40;99.90
480;DHT22;226;48.606;9.096;2022-10-16T02:29:16;14.90;99.90
480;DHT22;226;48.606;9.096;2022-10-16T02:31:48;14.70;99.90
480;DHT22;226;48.606;9.096;2022-10-16T02:34:18;14.70;99.20
480;DHT22;226;48.606;9.096;2022-10-16T02:36:49;14.70;99.60
480;DHT22;226;48.606;9.096;2022-10-16T02:39:18;15.10;99.30
480;DHT22;226;48.606;9.096;2022-10-16T02:41:47;14.50;98.80
480;DHT22;226;48.606;9.096;2022-10-16T02:44:17;15.20;99.70
480;DHT22;226;48.606;9.096;2022-10-16T02:46:45;14.30;99.90
480;DHT22;226;48.606;9.096;2022-10-16T02:49:13;14.30;99.90
480;DHT22;226;48.606;9.096;2022-10-16T02:51:41;14.20;99.90
480;DHT22;226;48.606;9.096;2022-10-16T02:54:09;14.70;99.90
480;DHT22;226;48.606;9.096;2022-10-16T02:56:37;14.80;99.90
480;DHT22;226;48.606;9.096;2022-10-16T02:59:05;14.30;99.90
480;DHT22;226;48.606;9.096;2022-10-16T03:01:34;14.60;99.90
480;DHT22;226;48.606;9.096;2022-10-16T03:04:03;14.70;99.90
480;DHT22;226;48.606;9.096;2022-10-16T03:06:31;14.40;99.90
480;DHT22;226;48.606;9.096;2022-10-16T03:08:59;15.50;99.90
480;DHT22;226;48.606;9.096;2022-10-16T03:11:27;14.80;99.90
480;DHT22;226;48.606;9.096;2022-10-16T03:13:55;14.40;99.80
480;DHT22;226;48.606;9.096;2022-10-16T03:16:23;14.70;99.80
480;DHT22;226;48.606;9.096;2022-10-16T03:18:52;15.40;99.90
480;DHT22;226;48.606;9.096;2022-10-16T03:21:20;14.40;99.90
480;DHT22;226;48.606;9.096;2022-10-16T03:26:17;14.50;97.30
480;DHT22;226;48.606;9.096;2022-10-16T03:28:45;14.80;99.60
480;DHT22;226;48.606;9.096;2022-10-16T03:31:13;14.40;99.10
480;DHT22;226;48.606;9.096;2022-10-16T03:33:40;14.30;99.60
480;DHT22;226;48.606;9.096;2022-10-16T03:38:38;14.20;99.20
480;DHT22;226;48.606;9.096;2022-10-16T03:41:06;15.00;99.90
480;DHT22;226;48.606;9.096;2022-10-16T03:43:34;15.10;99.90
480;DHT22;226;48.606;9.096;2022-10-16T03:46:02;15.20;99.90
480;DHT22;226;48.606;9.096;2022-10-16T03:48:32;14.60;99.90
480;DHT22;226;48.606;9.096;2022-10-16T03:51:00;14.50;99.90
480;DHT22;226;48.606;9.096;2022-10-16T03:53:29;14.70;99.90
480;DHT22;226;48.606;9.096;2022-10-16T03:55:57;15.10;99.90
480;DHT22;226;48.606;9.096;2022-10-16T03:58:25;15.10;99.90
480;DHT22;226;48.606;9.096;2022-10-16T04:00:53;14.30;99.90
480;DHT22;226;48.606;9.096;2022-10-16T04:03:21;15.00;99.90
480;DHT22;226;48.606;9.096;2022-10-16T04:05:49;14.70;99.90
480;DHT22;226;48.606;9.096;2022-10-16T04:08:17;14.80;99.90
480;DHT22;226;48.606;9.096;2022-10-16T04:10:47;14.40;99.70
480;DHT22;226;48.606;9.096;2022-10-16T04:13:15;14.60;99.50
480;DHT22;226;48.606;9.096;2022-10-16T04:15:44;14.60;99.70
480;DHT22;226;48.606;9.096;2022-10-16T04:18:13;14.30;99.40
480;DHT22;226;48.606;9.096;2022-10-16T04:20:40;14.90;99.70
480;DHT22;226;48.606;9.096;2022-10-16T04:23:08;14.50;99.70
480;DHT22;226;48.606;9.096;2022-10-16T04:25:36;14.90;99.10
480;DHT22;226;48.606;9.096;2022-10-16T04:28:06;14.90;98.80
480;DHT22;226;48.606;9.096;2022-10-16T04:30:34;14.40;98.20
480;DHT22;226;48.606;9.096;2022-10-16T04:33:02;15.10;98.40
480;DHT22;226;48.606;9.096;2022-10-16T04:35:30;14.40;98.10
480;DHT22;226;48.606;9.096;2022-10-16T04:37:58;14.80;99.00
480;DHT22;226;48.606;9.096;2022-10-16T04:40:26;15.10;99.10
480;DHT22;226;48.606;9.096;2022-10-16T04:42:54;15.20;99.30
480;DHT22;226;48.606;9.096;2022-10-16T04:45:24;14.40;98.80
480;DHT22;226;48.606;9.096;2022-10-16T04:47:52;14.80;99.20
480;DHT22;226;48.606;9.096;2022-10-16T04:50:20;14.90;98.70
480;DHT22;226;48.606;9.096;2022-10-16T04:52:48;14.50;98.80
480;DHT22;226;48.606;9.096;2022-10-16T04:55:16;14.40;99.00
480;DHT22;226;48.606;9.096;2022-10-16T04:57:44;14.30;98.60
480;DHT22;226;48.606;9.096;2022-10-16T05:00:12;14.70;98.90
480;DHT22;226;48.606;9.096;2022-10-16T05:02:42;14.30;98.90
480;DHT22;226;48.606;9.096;2022-10-16T05:05:10;14.20;99.10
480;DHT22;226;48.606;9.096;2022-10-16T05:07:38;14.40;99.40
480;DHT22;226;48.606;9.096;2022-10-16T05:10:06;14.10;99.90
480;DHT22;226;48.606;9.096;2022-10-16T05:12:34;14.20;99.90
480;DHT22;226;48.606;9.096;2022-10-16T05:15:03;15.30;99.90
480;DHT22;226;48.606;9.096;2022-10-16T05:17:31;14.30;99.40
480;DHT22;226;48.606;9.096;2022-10-16T05:20:00;14.20;99.90
480;DHT22;226;48.606;9.096;2022-10-16T05:22:28;14.20;99.50
480;DHT22;226;48.606;9.096;2022-10-16T05:24:56;14.90;99.50
480;DHT22;226;48.606;9.096;2022-10-16T05:27:24;14.30;99.40
480;DHT22;226;48.606;9.096;2022-10-16T05:29:53;14.10;99.90
480;DHT22;226;48.606;9.096;2022-10-16T05:32:21;14.20;99.10
480;DHT22;226;48.606;9.096;2022-10-16T05:34:50;14.20;99.00
480;DHT22;226;48.606;9.096;2022-10-16T05:37:20;14.60;99.30
480;DHT22;226;48.606;9.096;2022-10-16T05:42:16;14.00;97.10
480;DHT22;226;48.606;9.096;2022-10-16T05:44:44;14.00;99.20
480;DHT22;226;48.606;9.096;2022-10-16T05:47:12;14.00;99.70
480;DHT22;226;48.606;9.096;2022-10-16T05:49:40;13.90;99.80
480;DHT22;226;48.606;9.096;2022-10-16T05:52:08;13.90;99.90
480;DHT22;226;48.606;9.096;2022-10-16T05:54:38;13.70;99.90
480;DHT22;226;48.606;9.096;2022-10-16T05:57:05;13.70;99.90
480;DHT22;226;48.606;9.096;2022-10-16T05:59:33;14.20;99.90
480;DHT22;226;48.606;9.096;2022-10-16T06:02:02;13.70;99.90
480;DHT22;226;48.606;9.096;2022-10-16T06:04:30;13.80;99.90
480;DHT22;226;48.606;9.096;2022-10-16T06:06:58;13.80;99.90
480;DHT22;226;48.606;9.096;2022-10-16T06:09:27;14.50;99.90
480;DHT22;226;48.606;9.096;2022-10-16T06:11:57;13.80;99.90
480;DHT22;226;48.606;9.096;2022-10-16T06:14:25;14.50;99.90
480;DHT22;226;48.606;9.096;2022-10-16T06:16:53;14.00;99.90
480;DHT22;226;48.606;9.096;2022-10-16T06:19:21;13.70;99.90
480;DHT22;226;48.606;9.096;2022-10-16T06:21:49;13.90;99.90
480;DHT22;226;48.606;9.096;2022-10-16T06:24:17;14.90;99.90
480;DHT22;226;48.606;9.096;2022-10-16T06:26:45;15.30;99.90
480;DHT22;226;48.606;9.096;2022-10-16T06:29:14;14.00;99.90
480;DHT22;226;48.606;9.096;2022-10-16T06:31:42;14.70;99.90
480;DHT22;226;48.606;9.096;2022-10-16T06:34:10;14.90;99.90
480;DHT22;226;48.606;9.096;2022-10-16T06:36:38;14.30;99.90
480;DHT22;226;48.606;9.096;2022-10-16T06:39:07;14.80;99.90
480;DHT22;226;48.606;9.096;2022-10-16T06:41:35;13.00;98.90
480;DHT22;226;48.606;9.096;2022-10-16T06:44:05;15.00;99.70
480;DHT22;226;48.606;9.096;2022-10-16T06:46:34;14.60;99.90
480;DHT22;226;48.606;9.096;2022-10-16T06:49:02;15.00;99.90
480;DHT22;226;48.606;9.096;2022-10-16T06:51:30;15.50;99.90
480;DHT22;226;48.606;9.096;2022-10-16T06:54:06;15.00;99.90
480;DHT22;226;48.606;9.096;2022-10-16T06:56:34;14.80;99.80
480;DHT22;226;48.606;9.096;2022-10-16T06:59:03;15.60;99.80
480;DHT22;226;48.606;9.096;2022-10-16T07:01:34;15.70;98.70
480;DHT22;226;48.606;9.096;2022-10-16T07:04:02;15.50;98.30
480;DHT22;226;48.606;9.096;2022-10-16T07:06:33;15.50;97.70
480;DHT22;226;48.606;9.096;2022-10-16T07:09:04;16.00;97.20
480;DHT22;226;48.606;9.096;2022-10-16T07:11:33;15.60;95.40
480;DHT22;226;48.606;9.096;2022-10-16T07:14:02;15.90;92.40
480;DHT22;226;48.606;9.096;2022-10-16T07:16:31;16.10;92.70
480;DHT22;226;48.606;9.096;2022-10-16T07:19:02;16.30;93.00
480;DHT22;226;48.606;9.096;2022-10-16T07:21:32;16.60;92.60
480;DHT22;226;48.606;9.096;2022-10-16T07:24:03;16.20;99.90
480;DHT22;226;48.606;9.096;2022-10-16T07:26:35;16.40;91.60
480;DHT22;226;48.606;9.096;2022-10-16T07:29:03;16.70;91.70
480;DHT22;226;48.606;9.096;2022-10-16T07:31:31;16.40;90.50
480;DHT22;226;48.606;9.096;2022-10-16T07:34:01;16.60;89.00
480;DHT22;226;48.606;9.096;2022-10-16T07:36:29;16.60;96.30
480;DHT22;226;48.606;9.096;2022-10-16T07:38:57;17.10;89.80
480;DHT22;226;48.606;9.096;2022-10-16T07:41:26;16.70;88.70
480;DHT22;226;48.606;9.096;2022-10-16T07:43:55;17.00;89.40
480;DHT22;226;48.606;9.096;2022-10-16T07:46:26;16.60;86.10
480;DHT22;226;48.606;9.096;2022-10-16T07:48:54;16.80;86.30
480;DHT22;226;48.606;9.096;2022-10-16T07:51:25;16.80;86.70
480;DHT22;226;48.606;9.096;2022-10-16T07:53:53;17.30;85.70
480;DHT22;226;48.606;9.096;2022-10-16T07:56:22;17.00;86.00
480;DHT22;226;48.606;9.096;2022-10-16T07:58:50;17.50;83.50
480;DHT22;226;48.606;9.096;2022-10-16T08:01:19;17.20;83.40
480;DHT22;226;48.606;9.096;2022-10-16T08:03:49;17.70;81.60
480;DHT22;226;48.606;9.096;2022-10-16T08:06:18;17.30;82.60
480;DHT22;226;48.606;9.096;2022-10-16T08:08:54;17.30;80.40
480;DHT22;226;48.606;9.096;2022-10-16T08:11:22;17.40;77.90
480;DHT22;226;48.606;9.096;2022-10-16T08:13:50;17.30;78.80
480;DHT22;226;48.606;9.096;2022-10-16T08:16:18;17.70;80.00
480;DHT22;226;48.606;9.096;2022-10-16T08:18:46;17.30;80.50
480;DHT22;226;48.606;9.096;2022-10-16T08:21:16;17.40;82.40
480;DHT22;226;48.606;9.096;2022-10-16T08:23:47;17.60;83.80
480;DHT22;226;48.606;9.096;2022-10-16T08:26:27;17.80;91.10
480;DHT22;226;48.606;9.096;2022-10-16T08:28:55;17.70;91.60
480;DHT22;226;48.606;9.096;2022-10-16T08:31:23;17.90;90.70
480;DHT22;226;48.606;9.096;2022-10-16T08:33:53;18.00;87.50
480;DHT22;226;48.606;9.096;2022-10-16T08:36:21;18.00;86.10
480;DHT22;226;48.606;9.096;2022-10-16T08:38:49;18.00;85.10
480;DHT22;226;48.606;9.096;2022-10-16T08:44:49;18.10;80.70
480;DHT22;226;48.606;9.096;2022-10-16T08:47:24;18.00;80.00
480;DHT22;226;48.606;9.096;2022-10-16T08:49:57;18.10;81.70
480;DHT22;226;48.606;9.096;2022-10-16T08:52:29;18.10;83.80
480;DHT22;226;48.606;9.096;2022-10-16T08:54:58;18.30;82.40
480;DHT22;226;48.606;9.096;2022-10-16T08:57:26;18.20;82.00
480;DHT22;226;48.606;9.096;2022-10-16T08:59:59;18.20;81.30
480;DHT22;226;48.606;9.096;2022-10-16T09:02:32;18.10;81.10
480;DHT22;226;48.606;9.096;2022-10-16T09:05:24;18.20;82.70
480;DHT22;226;48.606;9.096;2022-10-16T09:08:03;18.20;83.30
480;DHT22;226;48.606;9.096;2022-10-16T09:10:44;18.40;80.20
480;DHT22;226;48.606;9.096;2022-10-16T09:13:21;18.30;82.30
480;DHT22;226;48.606;9.096;2022-10-16T09:15:59;18.50;80.70
480;DHT22;226;48.606;9.096;2022-10-16T09:18:33;18.40;80.80
480;DHT22;226;48.606;9.096;2022-10-16T09:21:10;18.80;83.00
480;DHT22;226;48.606;9.096;2022-10-16T09:23:41;18.60;81.60
480;DHT22;226;48.606;9.096;2022-10-16T09:26:12;18.50;79.70
480;DHT22;226;48.606;9.096;2022-10-16T09:28:41;18.20;79.20
480;DHT22;226;48.606;9.096;2022-10-16T09:31:16;18.60;79.50
480;DHT22;226;48.606;9.096;2022-10-16T09:33:48;18.70;77.00
480;DHT22;226;48.606;9.096;2022-10-16T09:36:18;18.90;76.60
480;DHT22;226;48.606;9.096;2022-10-16T09:38:47;19.20;78.60
480;DHT22;226;48.606;9.096;2022-10-16T09:41:18;19.30;43.70
480;DHT22;226;48.606;9.096;2022-10-16T09:43:52;19.70;49.30
480;DHT22;226;48.606;9.096;2022-10-16T09:46:26;19.50;46.70
480;DHT22;226;48.606;9.096;2022-10-16T09:48:57;19.90;64.70
480;DHT22;226;48.606;9.096;2022-10-16T09:51:29;19.80;35.90
480;DHT22;226;48.606;9.096;2022-10-16T09:53:59;19.80;37.80
480;DHT22;226;48.606;9.096;2022-10-16T09:56:32;19.80;47.50
480;DHT22;226;48.606;9.096;2022-10-16T09:59:02;19.80;48.90
480;DHT22;226;48.606;9.096;2022-10-16T10:01:37;19.80;36.80
480;DHT22;226;48.606;9.096;2022-10-16T10:04:07;20.10;57.20
480;DHT22;226;48.606;9.096;2022-10-16T10:06:37;19.90;35.80
480;DHT22;226;48.606;9.096;2022-10-16T10:09:19;19.90;49.80
480;DHT22;226;48.606;9.096;2022-10-16T10:11:52;20.10;45.40
480;DHT22;226;48.606;9.096;2022-10-16T10:14:31;20.10;33.00
480;DHT22;226;48.606;9.096;2022-10-16T10:17:15;20.10;33.80
480;DHT22;226;48.606;9.096;2022-10-16T10:19:49;20.30;32.60
480;DHT22;226;48.606;9.096;2022-10-16T10:22:31;20.30;30.40
480;DHT22;226;48.606;9.096;2022-10-16T10:25:15;20.40;47.80
480;DHT22;226;48.606;9.096;2022-10-16T10:27:54;20.40;31.50
480;DHT22;226;48.606;9.096;2022-10-16T10:30:27;20.70;31.40
480;DHT22;226;48.606;9.096;2022-10-16T10:33:12;20.70;30.90
480;DHT22;226;48.606;9.096;2022-10-16T10:35:46;20.90;47.00
480;DHT22;226;48.606;9.096;2022-10-16T10:38:30;21.00;46.30
480;DHT22;226;48.606;9.096;2022-10-16T10:41:07;21.10;46.40
480;DHT22;226;48.606;9.096;2022-10-16T10:43:52;21.20;45.00
480;DHT22;226;48.606;9.096;2022-10-16T10:46:30;21.50;45.40
480;DHT22;226;48.606;9.096;2022-10-16T10:49:13;21.30;41.60
480;DHT22;226;48.606;9.096;2022-10-16T10:51:49;21.50;40.40
480;DHT22;226;48.606;9.096;2022-10-16T10:54:25;21.40;37.90
480;DHT22;226;48.606;9.096;2022-10-16T10:57:00;21.20;40.20
480;DHT22;226;48.606;9.096;2022-10-16T11:00:03;21.30;62.50
480;DHT22;226;48.606;9.096;2022-10-16T11:02:37;21.20;40.90
480;DHT22;226;48.606;9.096;2022-10-16T11:05:31;21.40;40.40
480;DHT22;226;48.606;9.096;2022-10-16T11:08:09;21.40;34.80
480;DHT22;226;48.606;9.096;2022-10-16T11:10:44;21.60;34.70
480;DHT22;226;48.606;9.096;2022-10-16T11:13:20;21.80;35.70
480;DHT22;226;48.606;9.096;2022-10-16T11:15:52;22.00;38.20
480;DHT22;226;48.606;9.096;2022-10-16T11:18:26;22.10;37.90
480;DHT22;226;48.606;9.096;2022-10-16T11:21:00;22.10;35.20
480;DHT22;226;48.606;9.096;2022-10-16T11:23:32;22.30;35.60
480;DHT22;226;48.606;9.096;2022-10-16T11:26:05;22.60;33.90
480;DHT22;226;48.606;9.096;2022-10-16T11:28:38;22.70;34.10
480;DHT22;226;48.606;9.096;2022-10-16T11:31:14;22.70;34.00
480;DHT22;226;48.606;9.096;2022-10-16T11:33:47;22.80;34.30
480;DHT22;226;48.606;9.096;2022-10-16T11:36:22;22.70;36.00
480;DHT22;226;48.606;9.096;2022-10-16T11:39:00;22.80;33.80
480;DHT22;226;48.606;9.096;2022-10-16T11:41:34;22.70;34.70
480;DHT22;226;48.606;9.096;2022-10-16T11:44:14;22.70;34.50
480;DHT22;226;48.606;9.096;2022-10-16T11:46:50;22.60;33.00
480;DHT22;226;48.606;9.096;2022-10-16T11:49:40;22.50;31.10
480;DHT22;226;48.606;9.096;2022-10-16T11:52:17;20.70;31.60
480;DHT22;226;48.606;9.096;2022-10-16T11:54:50;23.00;32.40
480;DHT22;226;48.606;9.096;2022-10-16T11:57:22;22.40;31.70
480;DHT22;226;48.606;9.096;2022-10-16T11:59:55;22.10;47.90
480;DHT22;226;48.606;9.096;2022-10-16T12:02:48;22.40;32.80
480;DHT22;226;48.606;9.096;2022-10-16T12:05:25;22.50;31.60
480;DHT22;226;48.606;9.096;2022-10-16T12:08:07;22.70;30.60
480;DHT22;226;48.606;9.096;2022-10-16T12:10:36;22.70;30.40
480;DHT22;226;48.606;9.096;2022-10-16T12:13:29;22.90;30.10
480;DHT22;226;48.606;9.096;2022-10-16T12:16:19;22.70;31.30
480;DHT22;226;48.606;9.096;2022-10-16T12:18:48;23.00;31.10
480;DHT22;226;48.606;9.096;2022-10-16T12:21:17;22.90;30.70
480;DHT22;226;48.606;9.096;2022-10-16T12:23:51;23.10;29.90
480;DHT22;226;48.606;9.096;2022-10-16T12:26:24;23.00;30.90
480;DHT22;226;48.606;9.096;2022-10-16T12:28:53;23.00;29.70
480;DHT22;226;48.606;9.096;2022-10-16T12:31:22;22.90;28.80
480;DHT22;226;48.606;9.096;2022-10-16T12:33:57;23.00;29.20
480;DHT22;226;48.606;9.096;2022-10-16T12:36:28;22.90;29.10
480;DHT22;226;48.606;9.096;2022-10-16T12:38:59;22.90;28.70
480;DHT22;226;48.606;9.096;2022-10-16T12:41:29;23.00;30.10
480;DHT22;226;48.606;9.096;2022-10-16T12:43:58;23.20;28.70
480;DHT22;226;48.606;9.096;2022-10-16T12:46:37;23.40;29.00
480;DHT22;226;48.606;9.096;2022-10-16T12:49:18;23.40;27.00
480;DHT22;226;48.606;9.096;2022-10-16T12:51:47;23.40;25.90
480;DHT22;226;48.606;9.096;2022-10-16T12:54:19;23.90;26.60
480;DHT22;226;48.606;9.096;2022-10-16T12:57:04;23.60;27.80
480;DHT22;226;48.606;9.096;2022-10-16T12:59:43;23.70;23.70
480;DHT22;226;48.606;9.096;2022-10-16T13:02:33;23.60;25.80
480;DHT22;226;48.606;9.096;2022-10-16T13:05:31;23.80;26.40
480;DHT22;226;48.606;9.096;2022-10-16T13:08:33;23.80;23.90
480;DHT22;226;48.606;9.096;2022-10-16T13:11:08;24.10;24.50
480;DHT22;226;48.606;9.096;2022-10-16T13:14:02;24.20;25.30
480;DHT22;226;48.606;9.096;2022-10-16T13:16:40;24.30;24.10
480;DHT22;226;48.606;9.096;2022-10-16T13:19:20;24.40;25.90
480;DHT22;226;48.606;9.096;2022-10-16T13:21:55;24.40;25.70
480;DHT22;226;48.606;9.096;2022-10-16T13:27:27;24.30;24.60
480;DHT22;226;48.606;9.096;2022-10-16T13:30:02;24.20;43.20
480;DHT22;226;48.606;9.096;2022-10-16T13:32:39;24.30;26.70
480;DHT22;226;48.606;9.096;2022-10-16T13:35:19;24.40;26.30
480;DHT22;226;48.606;9.096;2022-10-16T13:37:48;24.60;25.10
480;DHT22;226;48.606;9.096;2022-10-16T13:40:21;24.90;24.70
480;DHT22;226;48.606;9.096;2022-10-16T13:42:51;25.00;25.30
480;DHT22;226;48.606;9.096;2022-10-16T13:45:22;25.20;25.50
480;DHT22;226;48.606;9.096;2022-10-16T13:48:00;25.40;25.30
480;DHT22;226;48.606;9.096;2022-10-16T13:50:28;25.60;24.70
480;DHT22;226;48.606;9.096;2022-10-16T13:53:04;25.60;24.20
480;DHT22;226;48.606;9.096;2022-10-16T13:55:33;25.60;24.70
480;DHT22;226;48.606;9.096;2022-10-16T13:58:12;25.60;22.40
480;DHT22;226;48.606;9.096;2022-10-16T14:00:51;25.50;24.20
480;DHT22;226;48.606;9.096;2022-10-16T14:03:20;25.40;25.00
480;DHT22;226;48.606;9.096;2022-10-16T14:05:51;25.40;26.00
480;DHT22;226;48.606;9.096;2022-10-16T14:08:20;25.20;26.60
480;DHT22;226;48.606;9.096;2022-10-16T14:10:50;25.60;26.30
480;DHT22;226;48.606;9.096;2022-10-16T14:13:26;26.00;23.30
480;DHT22;226;48.606;9.096;2022-10-16T14:15:55;25.70;24.20
480;DHT22;226;48.606;9.096;2022-10-16T14:18:27;25.80;23.80
480;DHT22;226;48.606;9.096;2022-10-16T14:21:06;26.00;23.90
480;DHT22;226;48.606;9.096;2022-10-16T14:23:37;26.00;23.90
480;DHT22;226;48.606;9.096;2022-10-16T14:26:12;25.70;23.20
480;DHT22;226;48.606;9.096;2022-10-16T14:28:42;25.70;24.60
480;DHT22;226;48.606;9.096;2022-10-16T14:31:29;25.80;25.50
480;DHT22;226;48.606;9.096;2022-10-16T14:33:58;25.80;20.20
480;DHT22;226;48.606;9.096;2022-10-16T14:36:27;26.00;25.00
480;DHT22;226;48.606;9.096;2022-10-16T14:39:01;26.00;24.30
480;DHT22;226;48.606;9.096;2022-10-16T14:41:31;26.40;23.30
480;DHT22;226;48.606;9.096;2022-10-16T14:44:04;26.50;25.00
480;DHT22;226;48.606;9.096;2022-10-16T14:46:35;26.20;22.60
480;DHT22;226;48.606;9.096;2022-10-16T14:49:15;26.60;23.70
480;DHT22;226;48.606;9.096;2022-10-16T14:51:43;26.60;23.50
480;DHT22;226;48.606;9.096;2022-10-16T14:54:13;26.60;23.40
480;DHT22;226;48.606;9.096;2022-10-16T14:56:46;26.50;22.90
480;DHT22;226;48.606;9.096;2022-10-16T14:59:19;26.40;23.90
480;DHT22;226;48.606;9.096;2022-10-16T15:01:47;26.10;27.20
480;DHT22;226;48.606;9.096;2022-10-16T15:04:15;26.00;25.20
480;DHT22;226;48.606;9.096;2022-10-16T15:06:44;25.80;25.20
480;DHT22;226;48.606;9.096;2022-10-16T15:09:12;25.90;24.50
480;DHT22;226;48.606;9.096;2022-10-16T15:11:41;25.90;34.20
480;DHT22;226;48.606;9.096;2022-10-16T15:14:11;25.80;36.70
480;DHT22;226;48.606;9.096;2022-10-16T15:16:42;25.70;34.50
480;DHT22;226;48.606;9.096;2022-10-16T15:19:10;25.40;38.60
480;DHT22;226;48.606;9.096;2022-10-16T15:21:38;24.70;42.00
480;DHT22;226;48.606;9.096;2022-10-16T15:24:09;24.00;46.50
480;DHT22;226;48.606;9.096;2022-10-16T15:26:45;23.50;50.60
480;DHT22;226;48.606;9.096;2022-10-16T15:29:13;23.10;53.20
480;DHT22;226;48.606;9.096;2022-10-16T15:31:42;22.90;54.30
480;DHT22;226;48.606;9.096;2022-10-16T15:34:11;22.80;56.40
480;DHT22;226;48.606;9.096;2022-10-16T15:36:40;22.70;59.40
480;DHT22;226;48.606;9.096;2022-10-16T15:39:13;22.10;60.20
480;DHT22;226;48.606;9.096;2022-10-16T15:41:43;22.40;59.30
480;DHT22;226;48.606;9.096;2022-10-16T15:44:11;22.20;60.00
480;DHT22;226;48.606;9.096;2022-10-16T15:46:39;22.10;59.10
480;DHT22;226;48.606;9.096;2022-10-16T15:49:08;22.10;60.30
480;DHT22;226;48.606;9.096;2022-10-16T15:51:38;22.10;59.40
480;DHT22;226;48.606;9.096;2022-10-16T15:54:07;21.80;60.60
480;DHT22;226;48.606;9.096;2022-10-16T15:56:35;21.30;62.40
480;DHT22;226;48.606;9.096;2022-10-16T15:59:04;21.40;64.40
480;DHT22;226;48.606;9.096;2022-10-16T16:01:33;21.10;65.40
480;DHT22;226;48.606;9.096;2022-10-16T16:04:01;20.90;69.90
480;DHT22;226;48.606;9.096;2022-10-16T16:06:42;20.60;71.60
480;DHT22;226;48.606;9.096;2022-10-16T16:09:12;20.50;71.20
480;DHT22;226;48.606;9.096;2022-10-16T16:11:41;20.50;70.10
480;DHT22;226;48.606;9.096;2022-10-16T16:14:10;20.30;69.20
480;DHT22;226;48.606;9.096;2022-10-16T16:16:39;20.30;70.00
480;DHT22;226;48.606;9.096;2022-10-16T16:19:08;19.90;75.40
480;DHT22;226;48.606;9.096;2022-10-16T16:21:38;19.80;77.90
480;DHT22;226;48.606;9.096;2022-10-16T16:24:07;19.80;77.90
480;DHT22;226;48.606;9.096;2022-10-16T16:26:36;19.30;76.90
480;DHT22;226;48.606;9.096;2022-10-16T16:29:06;18.90;79.70
480;DHT22;226;48.606;9.096;2022-10-16T16:31:34;19.10;81.50
480;DHT22;226;48.606;9.096;2022-10-16T16:34:02;19.00;82.90
480;DHT22;226;48.606;9.096;2022-10-16T16:36:31;18.90;80.10
480;DHT22;226;48.606;9.096;2022-10-16T16:38:59;19.10;73.40
480;DHT22;226;48.606;9.096;2022-10-16T16:41:29;18.50;82.10
480;DHT22;226;48.606;9.096;2022-10-16T16:44:02;18.50;84.10
480;DHT22;226;48.606;9.096;2022-10-16T16:46:31;18.30;73.50
480;DHT22;226;48.606;9.096;2022-10-16T16:49:00;18.30;80.10
480;DHT22;226;48.606;9.096;2022-10-16T16:51:29;18.00;76.80
480;DHT22;226;48.606;9.096;2022-10-16T16:53:57;18.30;77.60
480;DHT22;226;48.606;9.096;2022-10-16T16:56:26;17.80;83.00
480;DHT22;226;48.606;9.096;2022-10-16T16:58:56;17.90;80.20
480;DHT22;226;48.606;9.096;2022-10-16T17:01:26;17.40;88.10
480;DHT22;226;48.606;9.096;2022-10-16T17:03:56;17.70;84.00
480;DHT22;226;48.606;9.096;2022-10-16T17:06:26;17.50;86.20
480;DHT22;226;48.606;9.096;2022-10-16T17:08:57;17.70;86.30
480;DHT22;226;48.606;9.096;2022-10-16T17:11:26;17.40;84.20
480;DHT22;226;48.606;9.096;2022-10-16T17:13:57;17.50;84.70
480;DHT22;226;48.606;9.096;2022-10-16T17:16:27;17.40;84.90